Time;durP1;ratioP1;P1;durP2;ratioP2;P2;SDS_P1;SDS_P2;PMS_P1;PMS_P2;Temp;Humidity;BMP_temperature;BMP_pressure;BME280_temperature;BME280_humidity;BME280_pressure;Samples;Min_cycle;Max_cycle;Signal;HPM_P1;HPM_P2
2023/03/06 00:00:16;;;;;;;;;;;;;;;1.99;90.91;98106.91;4424253;32;19982;-68
2023/03/06 00:02:44;;;;;;;;;;;;;;;1.99;91.04;98106.06;4424100;32;19978;-68
2023/03/06 00:05:14;;;;;;;;;;;;;;;1.98;90.26;98101.81;4424244;32;20000;-68
2023/03/06 00:07:42;;;;;;;;;;;;;;;2.02;91.13;98105.88;4424057;32;20001;-68
2023/03/06 00:10:14;;;;;;;;;;;;;;;2.04;90.73;98104.00;4425384;32;19980;-68
2023/03/06 00:12:42;;;;;;;;;;;;;;;2.07;89.85;98106.41;4439330;32;20278;-68
2023/03/06 00:15:09;;;;;;;;;;;;;;;2.02;90.25;98098.13;4454724;32;19996;-68
2023/03/06 00:17:37;;;;;;;;;;;;;;;2.02;90.59;98100.72;4454944;32;19976;-68
2023/03/06 00:20:05;;;;;;;;;;;;;;;1.99;90.44;98098.31;4454783;32;19968;-68
2023/03/06 00:22:33;;;;;;;;;;;;;;;1.99;90.10;98100.91;4454848;32;19984;-68
2023/03/06 00:25:00;;;;;;;;;;;;;;;2.00;89.03;98100.81;4454785;32;19976;-68
2023/03/06 00:27:29;;;;;;;;;;;;;;;2.19;87.40;98103.00;4454816;32;19969;-68
2023/03/06 00:29:57;;;;;;;;;;;;;;;2.24;87.02;98095.78;4454748;32;20418;-68
2023/03/06 00:32:25;;;;;;;;;;;;;;;2.14;87.34;98097.31;4454720;32;20048;-68
2023/03/06 00:34:52;;;;;;;;;;;;;;;2.11;87.77;98092.34;4454761;32;19992;-68
2023/03/06 00:37:20;;;;;;;;;;;;;;;2.08;86.83;98093.38;4453965;32;19989;-68
2023/03/06 00:39:48;;;;;;;;;;;;;;;2.08;86.36;98095.13;4454921;32;19987;-68
2023/03/06 00:42:16;;;;;;;;;;;;;;;2.03;87.51;98085.09;4454485;32;20356;-68
2023/03/06 00:44:43;;;;;;;;;;;;;;;2.02;86.64;98086.03;4454733;32;20025;-68
2023/03/06 00:47:11;;;;;;;;;;;;;;;2.04;86.61;98089.31;4454616;32;20032;-68
2023/03/06 00:49:38;;;;;;;;;;;;;;;2.09;86.53;98087.28;4454609;32;19960;-68
2023/03/06 00:52:06;;;;;;;;;;;;;;;2.08;86.45;98089.97;4454552;32;19976;-68
2023/03/06 00:54:33;;;;;;;;;;;;;;;2.13;86.07;98085.31;4454721;32;20016;-68
2023/03/06 00:57:00;;;;;;;;;;;;;;;2.09;86.44;98073.53;4454599;32;20043;-68
2023/03/06 00:59:28;;;;;;;;;;;;;;;2.07;86.63;98067.63;4454547;32;19965;-68
2023/03/06 01:01:55;;;;;;;;;;;;;;;2.11;86.04;98067.34;4454467;32;19977;-68
2023/03/06 01:04:23;;;;;;;;;;;;;;;2.14;85.75;98058.56;4454518;32;19980;-68
2023/03/06 01:06:50;;;;;;;;;;;;;;;2.11;85.58;98058.78;4454436;32;20040;-68
2023/03/06 01:09:18;;;;;;;;;;;;;;;2.12;85.33;98063.84;4454522;32;19995;-68
2023/03/06 01:11:45;;;;;;;;;;;;;;;2.20;85.07;98059.91;4442397;32;19996;-68
2023/03/06 01:14:12;;;;;;;;;;;;;;;2.29;84.11;98064.47;4448666;32;20077;-68
2023/03/06 01:16:40;;;;;;;;;;;;;;;2.31;83.51;98071.16;4454338;32;20013;-68
2023/03/06 01:19:08;;;;;;;;;;;;;;;2.33;83.32;98059.91;4454503;32;20286;-68
2023/03/06 01:21:36;;;;;;;;;;;;;;;2.28;83.96;98055.88;4454488;32;20596;-68
2023/03/06 01:24:04;;;;;;;;;;;;;;;2.26;83.55;98050.00;4454578;32;19980;-68
2023/03/06 01:26:32;;;;;;;;;;;;;;;2.34;84.03;98051.25;4454291;32;19985;-68
2023/03/06 01:28:59;;;;;;;;;;;;;;;2.38;82.82;98047.53;4454391;32;19983;-67
2023/03/06 01:31:27;;;;;;;;;;;;;;;2.39;83.36;98049.16;4454455;32;20030;-68
2023/03/06 01:33:54;;;;;;;;;;;;;;;2.32;84.36;98051.34;4454463;32;19980;-68
2023/03/06 01:36:22;;;;;;;;;;;;;;;2.42;84.24;98043.78;4454440;32;19972;-68
2023/03/06 01:38:50;;;;;;;;;;;;;;;2.38;84.28;98043.19;4454427;32;19981;-68
2023/03/06 01:41:17;;;;;;;;;;;;;;;2.31;85.01;98035.00;4454187;32;20036;-68
2023/03/06 01:43:46;;;;;;;;;;;;;;;2.33;84.76;98047.00;4454344;32;20383;-68
2023/03/06 01:46:16;;;;;;;;;;;;;;;2.26;84.72;98037.06;4454139;32;19992;-68
2023/03/06 01:48:44;;;;;;;;;;;;;;;2.28;84.44;98042.94;4454420;32;19976;-68
2023/03/06 01:51:11;;;;;;;;;;;;;;;2.33;84.53;98039.25;4453985;32;19989;-68
2023/03/06 01:53:38;;;;;;;;;;;;;;;2.35;84.10;98037.38;4440438;32;19988;-68
2023/03/06 01:56:06;;;;;;;;;;;;;;;2.36;84.71;98036.44;4454264;32;19988;-68
2023/03/06 01:58:33;;;;;;;;;;;;;;;2.35;84.83;98035.63;4454292;32;20044;-68
2023/03/06 02:01:01;;;;;;;;;;;;;;;2.34;85.29;98046.06;4440246;32;19992;-68
2023/03/06 02:03:29;;;;;;;;;;;;;;;2.34;84.98;98038.31;4454167;32;19988;-68
2023/03/06 02:05:58;;;;;;;;;;;;;;;2.41;84.58;98042.97;4440332;32;20471;-68
2023/03/06 02:08:25;;;;;;;;;;;;;;;2.40;84.96;98040.50;4454366;32;20022;-68
2023/03/06 02:11:04;;;;;;;;;;;;;;;2.31;85.66;98032.41;4448072;32;20099;-68
2023/03/06 02:13:32;;;;;;;;;;;;;;;2.30;86.31;98042.84;4438310;32;164725;-68
2023/03/06 02:15:59;;;;;;;;;;;;;;;2.31;86.47;98027.25;4454141;32;19977;-68
2023/03/06 02:18:27;;;;;;;;;;;;;;;2.29;87.26;98034.28;4454203;32;20448;-68
2023/03/06 02:20:56;;;;;;;;;;;;;;;2.38;86.33;98030.25;4440132;32;19989;-68
2023/03/06 02:23:24;;;;;;;;;;;;;;;2.36;86.85;98033.87;4439974;32;20003;-68
2023/03/06 02:25:51;;;;;;;;;;;;;;;2.30;87.83;98029.94;4453924;32;19980;-68
2023/03/06 02:28:19;;;;;;;;;;;;;;;2.29;88.19;98030.88;4439942;32;19998;-68
2023/03/06 02:30:49;;;;;;;;;;;;;;;2.23;88.55;98026.94;4453825;32;20396;-68
2023/03/06 02:33:17;;;;;;;;;;;;;;;2.30;87.95;98030.78;4453830;32;20000;-68
2023/03/06 02:35:55;;;;;;;;;;;;;;;2.27;87.68;98023.22;4453840;32;19972;-68
2023/03/06 02:38:24;;;;;;;;;;;;;;;2.27;87.53;98022.38;4453963;32;19980;-68
2023/03/06 02:40:51;;;;;;;;;;;;;;;2.29;87.80;98023.94;4453530;32;20000;-68
2023/03/06 02:43:23;;;;;;;;;;;;;;;2.30;87.79;98017.84;4453608;32;19998;-68
2023/03/06 02:45:51;;;;;;;;;;;;;;;2.35;87.85;98024.44;4453896;32;19981;-68
2023/03/06 02:48:19;;;;;;;;;;;;;;;2.27;88.06;98027.56;4453679;32;20018;-68
2023/03/06 02:50:47;;;;;;;;;;;;;;;2.41;86.55;98024.06;4453800;32;20027;-68
2023/03/06 02:53:16;;;;;;;;;;;;;;;2.38;86.31;98021.69;4453638;32;19973;-68
2023/03/06 02:55:43;;;;;;;;;;;;;;;2.36;87.19;98024.34;4453712;32;19980;-68
2023/03/06 02:58:11;;;;;;;;;;;;;;;2.42;86.76;98023.94;4453874;32;19980;-68
2023/03/06 03:00:38;;;;;;;;;;;;;;;2.38;87.01;98029.44;4454890;32;20000;-68
2023/03/06 03:03:07;;;;;;;;;;;;;;;2.39;86.42;98023.31;4458885;32;19999;-67
2023/03/06 03:05:34;;;;;;;;;;;;;;;2.38;86.85;98019.91;4458642;32;19976;-68
2023/03/06 03:08:03;;;;;;;;;;;;;;;2.41;86.86;98024.06;4458524;32;19980;-68
2023/03/06 03:10:30;;;;;;;;;;;;;;;2.38;87.04;98027.66;4454809;32;19981;-68
2023/03/06 03:12:57;;;;;;;;;;;;;;;2.31;87.04;98019.47;4444229;32;20012;-68
2023/03/06 03:15:25;;;;;;;;;;;;;;;2.33;87.06;98028.91;4458911;32;20322;-68
2023/03/06 03:17:53;;;;;;;;;;;;;;;2.33;86.70;98014.22;4458307;32;20029;-68
2023/03/06 03:20:20;;;;;;;;;;;;;;;2.34;86.26;98015.06;4458613;32;20335;-68
2023/03/06 03:22:50;;;;;;;;;;;;;;;2.38;86.71;98013.94;4458259;32;19995;-68
2023/03/06 03:25:17;;;;;;;;;;;;;;;2.37;86.95;98014.84;4458414;32;20029;-68
2023/03/06 03:27:45;;;;;;;;;;;;;;;2.35;86.85;98027.03;4458489;32;20034;-68
2023/03/06 03:30:13;;;;;;;;;;;;;;;2.44;86.08;98010.94;4458247;32;19984;-68
2023/03/06 03:32:41;;;;;;;;;;;;;;;2.45;86.10;98015.12;4458097;32;20040;-68
2023/03/06 03:35:09;;;;;;;;;;;;;;;2.39;86.46;98008.66;4458337;32;20361;-68
2023/03/06 03:37:36;;;;;;;;;;;;;;;2.42;86.84;98010.19;4458047;32;20003;-68
2023/03/06 03:40:05;;;;;;;;;;;;;;;2.34;87.38;98005.53;4458173;32;20326;-68
2023/03/06 03:42:33;;;;;;;;;;;;;;;2.34;87.30;98000.38;4457898;32;20047;-68
2023/03/06 03:45:01;;;;;;;;;;;;;;;2.36;86.86;98005.44;4458334;32;19973;-68
2023/03/06 03:47:29;;;;;;;;;;;;;;;2.37;87.37;97999.34;4458457;32;19981;-68
2023/03/06 03:49:56;;;;;;;;;;;;;;;2.38;87.29;97999.25;4457977;32;20425;-68
2023/03/06 03:52:24;;;;;;;;;;;;;;;2.31;87.24;98001.41;4458200;32;20048;-68
2023/03/06 03:54:51;;;;;;;;;;;;;;;2.31;87.44;97995.41;4457978;32;20052;-68
2023/03/06 03:57:18;;;;;;;;;;;;;;;2.36;87.09;97998.50;4457999;32;20030;-68
2023/03/06 03:59:46;;;;;;;;;;;;;;;2.36;86.97;97998.50;4458067;32;20000;-68
2023/03/06 04:02:14;;;;;;;;;;;;;;;2.34;87.14;97996.97;4457913;32;19989;-68
2023/03/06 04:04:43;;;;;;;;;;;;;;;2.29;87.27;97990.34;4457928;32;19985;-68
2023/03/06 04:07:11;;;;;;;;;;;;;;;2.33;87.20;97997.88;4457857;32;20342;-68
2023/03/06 04:09:38;;;;;;;;;;;;;;;2.30;87.58;97993.75;4457682;32;20012;-68
2023/03/06 04:12:07;;;;;;;;;;;;;;;2.34;87.65;97994.38;4442047;32;19985;-68
2023/03/06 04:14:34;;;;;;;;;;;;;;;2.34;87.33;98007.31;4451263;32;19972;-68
2023/03/06 04:17:02;;;;;;;;;;;;;;;2.34;87.38;98004.72;4455380;32;20261;-68
2023/03/06 04:19:29;;;;;;;;;;;;;;;2.31;87.69;98005.75;4455006;32;20040;-68
2023/03/06 04:21:57;;;;;;;;;;;;;;;2.19;88.62;98011.75;4454815;32;20042;-68
2023/03/06 04:24:25;;;;;;;;;;;;;;;2.21;88.47;98009.88;4455113;32;20318;-68
2023/03/06 04:26:52;;;;;;;;;;;;;;;2.26;88.37;98000.88;4454802;32;20331;-68
2023/03/06 04:29:20;;;;;;;;;;;;;;;2.27;88.12;97999.13;4454766;32;19980;-68
2023/03/06 04:31:47;;;;;;;;;;;;;;;2.30;87.85;97994.59;4454855;32;20322;-68
2023/03/06 04:34:16;;;;;;;;;;;;;;;2.31;88.45;97993.62;4454636;32;19980;-68
2023/03/06 04:36:45;;;;;;;;;;;;;;;2.19;89.48;98001.41;4454777;32;20390;-68
2023/03/06 04:39:12;;;;;;;;;;;;;;;2.17;89.09;97998.13;4454761;32;19985;-68
2023/03/06 04:41:40;;;;;;;;;;;;;;;2.23;89.01;97993.34;4454644;32;20066;-68
2023/03/06 04:44:08;;;;;;;;;;;;;;;2.27;88.62;97994.81;4454812;32;19984;-68
2023/03/06 04:46:35;;;;;;;;;;;;;;;2.28;88.57;97996.44;4454689;32;19968;-68
2023/03/06 04:49:03;;;;;;;;;;;;;;;2.33;88.41;97992.72;4454927;32;20354;-68
2023/03/06 04:51:30;;;;;;;;;;;;;;;2.33;88.41;97987.56;4454654;32;19976;-68
2023/03/06 04:53:59;;;;;;;;;;;;;;;2.29;87.94;97986.94;4454579;32;20345;-68
2023/03/06 04:56:26;;;;;;;;;;;;;;;2.33;88.19;97987.56;4454720;32;20022;-68
2023/03/06 04:58:54;;;;;;;;;;;;;;;2.35;88.17;97986.53;4454484;32;19994;-68
2023/03/06 05:01:21;;;;;;;;;;;;;;;2.37;88.42;97986.41;4454710;32;20436;-68
2023/03/06 05:03:49;;;;;;;;;;;;;;;2.29;88.07;97987.75;4444233;32;19976;-68
2023/03/06 05:06:16;;;;;;;;;;;;;;;2.30;88.55;97984.25;4427912;32;19989;-68
2023/03/06 05:08:43;;;;;;;;;;;;;;;2.32;88.57;97986.72;4426402;32;19988;-68
2023/03/06 05:11:11;;;;;;;;;;;;;;;2.35;88.97;97983.09;4434550;32;19993;-68
2023/03/06 05:13:39;;;;;;;;;;;;;;;2.37;88.65;97989.81;4435303;32;20331;-68
2023/03/06 05:16:06;;;;;;;;;;;;;;;2.31;88.86;97990.25;4450527;32;21630;-68
2023/03/06 05:18:34;;;;;;;;;;;;;;;2.37;88.23;97989.81;4427836;32;19981;-68
2023/03/06 05:21:02;;;;;;;;;;;;;;;2.39;88.42;97990.56;4438835;32;19984;-68
2023/03/06 05:23:30;;;;;;;;;;;;;;;2.41;88.42;97985.28;4420738;32;20382;-68
2023/03/06 05:25:58;;;;;;;;;;;;;;;2.41;88.26;97993.84;4433768;32;20469;-68
2023/03/06 05:28:25;;;;;;;;;;;;;;;2.39;89.23;97981.97;4434210;32;19993;-68
2023/03/06 05:30:52;;;;;;;;;;;;;;;2.44;89.45;97985.06;4433459;32;20051;-68
2023/03/06 05:33:20;;;;;;;;;;;;;;;2.50;88.87;97984.66;4433009;32;20059;-68
2023/03/06 05:35:47;;;;;;;;;;;;;;;2.58;88.86;97984.94;4434672;32;20015;-68
2023/03/06 05:38:15;;;;;;;;;;;;;;;2.48;88.86;97981.31;4427191;32;20034;-69
2023/03/06 05:40:43;;;;;;;;;;;;;;;2.43;89.39;97984.22;4435372;32;20045;-68
2023/03/06 05:43:11;;;;;;;;;;;;;;;2.45;89.22;97987.56;4437570;32;19977;-68
2023/03/06 05:45:38;;;;;;;;;;;;;;;2.41;90.08;97982.69;4430001;32;19995;-68
2023/03/06 05:48:06;;;;;;;;;;;;;;;2.47;89.95;97980.50;4426235;32;20004;-68
2023/03/06 05:50:33;;;;;;;;;;;;;;;2.53;90.07;97989.59;4438100;32;19988;-68
2023/03/06 05:53:00;;;;;;;;;;;;;;;2.53;89.75;97994.78;4435474;32;19973;-68
2023/03/06 05:55:29;;;;;;;;;;;;;;;2.50;89.71;97995.00;4422608;32;20044;-68
2023/03/06 05:57:56;;;;;;;;;;;;;;;2.58;89.66;97997.03;4433420;32;19980;-68
2023/03/06 06:00:24;;;;;;;;;;;;;;;2.62;89.18;97994.13;4433061;32;20078;-68
2023/03/06 06:02:51;;;;;;;;;;;;;;;2.62;89.76;97993.28;4426769;32;20030;-68
2023/03/06 06:05:18;;;;;;;;;;;;;;;2.59;90.24;97990.91;4436287;32;19988;-68
2023/03/06 06:07:46;;;;;;;;;;;;;;;2.63;89.95;97993.22;4437161;32;20029;-68
2023/03/06 06:10:14;;;;;;;;;;;;;;;2.62;87.88;97990.72;4423150;32;19992;-69
2023/03/06 06:12:41;;;;;;;;;;;;;;;2.74;87.68;97994.22;4433427;32;19977;-69
2023/03/06 06:15:08;;;;;;;;;;;;;;;2.79;88.51;97995.53;4438829;32;20008;-68
2023/03/06 06:17:36;;;;;;;;;;;;;;;2.79;88.84;98005.06;4430810;32;20442;-68
2023/03/06 06:20:04;;;;;;;;;;;;;;;2.85;88.98;97999.47;4431758;32;20044;-68
2023/03/06 06:22:34;;;;;;;;;;;;;;;2.86;88.76;98014.03;4436300;32;20021;-69
2023/03/06 06:25:01;;;;;;;;;;;;;;;2.89;88.64;98011.22;4438326;32;20037;-68
2023/03/06 06:27:29;;;;;;;;;;;;;;;2.89;88.90;98013.81;4433144;32;20056;-68
2023/03/06 06:29:56;;;;;;;;;;;;;;;2.93;88.89;98010.09;4420798;32;19988;-69
2023/03/06 06:32:24;;;;;;;;;;;;;;;2.97;87.57;98016.72;4433336;32;20021;-68
2023/03/06 06:34:51;;;;;;;;;;;;;;;3.00;87.07;98016.50;4427886;32;20022;-68
2023/03/06 06:37:18;;;;;;;;;;;;;;;3.02;86.63;98012.03;4430425;32;20022;-68
2023/03/06 06:39:46;;;;;;;;;;;;;;;3.02;86.44;98014.63;4436712;32;20548;-68
2023/03/06 06:42:13;;;;;;;;;;;;;;;3.11;86.60;98014.91;4437093;32;19992;-69
2023/03/06 06:44:59;;;;;;;;;;;;;;;3.04;85.81;98009.34;4422259;32;20099;-68
2023/03/06 06:47:26;;;;;;;;;;;;;;;3.14;86.65;98004.34;4433447;32;20031;-67
2023/03/06 06:49:54;;;;;;;;;;;;;;;3.27;86.31;98010.31;4433464;32;19982;-68
2023/03/06 06:52:22;;;;;;;;;;;;;;;3.30;86.35;98011.81;4424432;32;19992;-68
2023/03/06 06:54:50;;;;;;;;;;;;;;;3.37;86.26;98011.28;4429115;32;20012;-68
2023/03/06 06:57:17;;;;;;;;;;;;;;;3.42;85.64;98015.31;4431084;32;20539;-68
2023/03/06 06:59:44;;;;;;;;;;;;;;;3.37;85.77;98016.44;4420445;32;20073;-69
2023/03/06 07:02:13;;;;;;;;;;;;;;;3.48;85.95;98013.13;4435428;32;20354;-69
2023/03/06 07:04:40;;;;;;;;;;;;;;;3.54;86.66;98011.81;4435928;32;20358;-67
2023/03/06 07:07:30;;;;;;;;;;;;;;;3.61;86.66;98018.22;4430008;32;19980;-68
2023/03/06 07:09:58;;;;;;;;;;;;;;;3.68;85.77;98014.25;4431620;32;20005;-69
2023/03/06 07:12:26;;;;;;;;;;;;;;;3.69;85.57;98025.44;4431508;32;20023;-68
2023/03/06 07:14:54;;;;;;;;;;;;;;;3.75;85.23;98024.16;4428699;32;20523;-68
2023/03/06 07:17:22;;;;;;;;;;;;;;;3.70;85.76;98022.72;4431697;32;20011;-67
2023/03/06 07:19:49;;;;;;;;;;;;;;;3.81;86.43;98023.69;4427966;32;19988;-69
2023/03/06 07:22:16;;;;;;;;;;;;;;;3.72;86.96;98033.81;4430302;32;20064;-68
2023/03/06 07:24:44;;;;;;;;;;;;;;;3.55;88.01;98037.59;4434700;32;20303;-69
2023/03/06 07:27:11;;;;;;;;;;;;;;;3.60;89.44;98033.87;4435132;32;20099;-69
2023/03/06 07:29:40;;;;;;;;;;;;;;;3.63;89.88;98026.69;4431593;32;20009;-69
2023/03/06 07:32:08;;;;;;;;;;;;;;;3.69;89.91;98026.28;4430038;32;20036;-67
2023/03/06 07:34:35;;;;;;;;;;;;;;;3.50;90.14;98036.31;4428397;32;19999;-69
2023/03/06 07:37:02;;;;;;;;;;;;;;;3.52;92.33;98034.44;4431198;32;19981;-69
2023/03/06 07:39:30;;;;;;;;;;;;;;;3.61;92.83;98028.56;4433038;32;19989;-70
2023/03/06 07:41:57;;;;;;;;;;;;;;;3.73;93.57;98025.09;4424541;32;19996;-69
2023/03/06 07:44:25;;;;;;;;;;;;;;;3.80;92.32;98017.72;4426729;32;20581;-70
2023/03/06 07:46:52;;;;;;;;;;;;;;;3.65;94.23;98030.00;4431989;32;20744;-69
2023/03/06 07:49:20;;;;;;;;;;;;;;;3.88;92.37;98028.31;4439551;32;20368;-69
2023/03/06 07:51:48;;;;;;;;;;;;;;;4.06;91.06;98023.53;4436999;32;19995;-69
2023/03/06 07:54:15;;;;;;;;;;;;;;;4.24;90.32;98028.31;4434615;32;20000;-70
2023/03/06 07:56:43;;;;;;;;;;;;;;;4.41;89.14;98033.03;4425715;32;20008;-69
2023/03/06 07:59:10;;;;;;;;;;;;;;;4.64;88.98;98034.81;4435344;32;19996;-68
2023/03/06 08:01:39;;;;;;;;;;;;;;;4.44;87.68;98032.78;4426357;32;20495;-68
2023/03/06 08:04:06;;;;;;;;;;;;;;;4.49;87.08;98039.41;4425625;32;20342;-69
2023/03/06 08:06:33;;;;;;;;;;;;;;;4.23;88.94;98039.59;4428528;32;19993;-68
2023/03/06 08:09:01;;;;;;;;;;;;;;;4.17;89.22;98051.25;4430262;32;19995;-69
2023/03/06 08:11:29;;;;;;;;;;;;;;;4.20;88.63;98045.03;4433791;32;19973;-69
2023/03/06 08:13:56;;;;;;;;;;;;;;;4.28;89.44;98037.47;4433117;32;20417;-68
2023/03/06 08:16:24;;;;;;;;;;;;;;;4.23;88.77;98043.00;4436311;32;19985;-70
2023/03/06 08:18:52;;;;;;;;;;;;;;;4.18;87.79;98037.34;4436225;32;19980;-69
2023/03/06 08:21:21;;;;;;;;;;;;;;;4.54;87.84;98021.72;4433351;32;20432;-68
2023/03/06 08:23:48;;;;;;;;;;;;;;;4.53;86.96;98022.66;4430914;32;20060;-68
2023/03/06 08:26:16;;;;;;;;;;;;;;;4.88;86.34;98021.72;4433587;32;19989;-68
2023/03/06 08:28:44;;;;;;;;;;;;;;;5.03;86.62;98017.91;4432321;32;20007;-69
2023/03/06 08:31:12;;;;;;;;;;;;;;;5.16;84.20;98022.94;4436500;32;19983;-70
2023/03/06 08:33:42;;;;;;;;;;;;;;;5.10;81.91;98015.66;4432932;32;19976;-69
2023/03/06 08:36:09;;;;;;;;;;;;;;;5.24;82.42;98011.94;4432834;32;19996;-68
2023/03/06 08:38:37;;;;;;;;;;;;;;;5.44;78.09;98018.16;4432029;32;20042;-69
2023/03/06 08:41:05;;;;;;;;;;;;;;;5.27;80.70;98012.56;4433322;32;20327;-68
2023/03/06 08:43:34;;;;;;;;;;;;;;;5.33;80.99;98013.84;4431180;32;20354;-69
2023/03/06 08:46:01;;;;;;;;;;;;;;;5.77;82.09;98005.97;4434427;32;20318;-69
2023/03/06 08:48:29;;;;;;;;;;;;;;;5.87;79.71;98012.91;4435349;32;19989;-70
2023/03/06 08:50:57;;;;;;;;;;;;;;;5.99;79.83;98011.09;4435587;32;19988;-69
2023/03/06 08:53:24;;;;;;;;;;;;;;;6.35;79.24;98006.38;4431019;32;20067;-69
2023/03/06 08:56:07;;;;;;;;;;;;;;;6.38;77.91;98006.13;4431210;32;19988;-70
2023/03/06 08:58:34;;;;;;;;;;;;;;;5.89;78.06;98009.34;4429702;32;20035;-69
2023/03/06 09:01:05;;;;;;;;;;;;;;;5.79;79.15;98004.91;4431419;32;19972;-70
2023/03/06 09:03:33;;;;;;;;;;;;;;;5.90;80.89;98000.59;4429702;32;20622;-70
2023/03/06 09:06:01;;;;;;;;;;;;;;;5.77;78.00;97999.03;4433580;32;19992;-69
2023/03/06 09:08:28;;;;;;;;;;;;;;;5.71;79.59;98007.31;4431601;32;19998;-69
2023/03/06 09:10:56;;;;;;;;;;;;;;;5.80;80.17;98001.38;4430208;32;19985;-70
2023/03/06 09:13:24;;;;;;;;;;;;;;;5.45;79.95;98002.47;4424237;32;20456;-67
2023/03/06 09:15:53;;;;;;;;;;;;;;;5.30;79.65;98004.50;4435805;32;20000;-69
2023/03/06 09:18:20;;;;;;;;;;;;;;;5.45;82.56;97999.88;4427218;32;20394;-71
2023/03/06 09:20:47;;;;;;;;;;;;;;;5.68;81.12;97991.97;4433707;32;20042;-69
2023/03/06 09:23:15;;;;;;;;;;;;;;;6.07;76.54;97997.47;4431226;32;20006;-70
2023/03/06 09:25:42;;;;;;;;;;;;;;;6.25;74.90;97995.09;4433482;32;20056;-69
2023/03/06 09:28:10;;;;;;;;;;;;;;;6.28;74.74;97989.63;4427862;32;20022;-69
2023/03/06 09:30:39;;;;;;;;;;;;;;;6.28;76.47;97988.81;4432511;32;20007;-69
2023/03/06 09:33:07;;;;;;;;;;;;;;;6.68;74.86;97990.66;4432040;32;20085;-69
2023/03/06 09:35:34;;;;;;;;;;;;;;;6.89;71.27;97988.78;4431647;32;19984;-67
2023/03/06 09:38:01;;;;;;;;;;;;;;;7.32;72.38;97989.41;4431005;32;20001;-67
2023/03/06 09:40:32;;;;;;;;;;;;;;;6.90;72.14;97984.38;4432584;32;20338;-68
2023/03/06 09:43:00;;;;;;;;;;;;;;;6.69;71.67;97982.72;4437808;32;19992;-67
2023/03/06 09:45:27;;;;;;;;;;;;;;;6.88;72.97;97979.31;4423797;32;20044;-68
2023/03/06 09:47:59;;;;;;;;;;;;;;;6.62;70.29;97975.56;4419037;32;20012;-69
2023/03/06 09:50:49;;;;;;;;;;;;;;;6.55;71.42;97977.84;4420718;32;19988;-69
2023/03/06 09:53:35;;;;;;;;;;;;;;;6.73;69.72;97978.03;4417834;32;20018;-69
2023/03/06 09:56:05;;;;;;;;;;;;;;;6.83;71.80;97978.06;4434491;32;20032;-65
2023/03/06 09:58:33;;;;;;;;;;;;;;;6.55;69.27;97981.25;4418398;32;20060;-68
2023/03/06 10:01:21;;;;;;;;;;;;;;;6.67;69.79;97968.97;4428697;32;20347;-68
2023/03/06 10:04:11;;;;;;;;;;;;;;;6.60;70.25;97962.69;4436599;32;20024;-67
2023/03/06 10:06:46;;;;;;;;;;;;;;;6.84;70.95;97964.91;4427398;32;19996;-68
2023/03/06 10:09:17;;;;;;;;;;;;;;;6.85;70.78;97957.94;4424469;32;19993;-68
2023/03/06 10:11:46;;;;;;;;;;;;;;;6.86;70.68;97967.41;4429919;32;20034;-68
2023/03/06 10:14:19;;;;;;;;;;;;;;;6.71;68.96;97969.56;4431478;32;20001;-68
2023/03/06 10:16:46;;;;;;;;;;;;;;;6.53;70.82;97967.56;4418121;32;20480;-68
2023/03/06 10:19:15;;;;;;;;;;;;;;;6.44;71.13;97962.34;4429018;32;19988;-68
2023/03/06 10:21:45;;;;;;;;;;;;;;;6.24;72.64;97958.81;4435489;32;20026;-68
2023/03/06 10:24:33;;;;;;;;;;;;;;;6.20;74.15;97959.06;4430308;32;20012;-68
2023/03/06 10:27:05;;;;;;;;;;;;;;;6.04;73.76;97961.31;4413301;32;19984;-68
2023/03/06 10:29:36;;;;;;;;;;;;;;;6.01;73.91;97962.41;4420408;32;19996;-68
2023/03/06 10:32:10;;;;;;;;;;;;;;;5.92;73.97;97959.69;4427660;32;20441;-68
2023/03/06 10:34:38;;;;;;;;;;;;;;;6.08;73.75;97960.09;4428553;32;20553;-68
2023/03/06 10:37:31;;;;;;;;;;;;;;;6.10;72.34;97960.81;4433834;32;20392;-68
2023/03/06 10:40:07;;;;;;;;;;;;;;;6.16;72.67;97947.28;4429398;32;19984;-68
2023/03/06 10:42:35;;;;;;;;;;;;;;;6.04;72.65;97943.09;4415858;32;19976;-67
2023/03/06 10:45:13;;;;;;;;;;;;;;;6.13;73.16;97939.75;4436249;32;20000;-66
2023/03/06 10:47:40;;;;;;;;;;;;;;;6.11;73.18;97936.44;4427932;32;20000;-68
2023/03/06 10:50:27;;;;;;;;;;;;;;;6.27;71.54;97935.13;4414383;32;20046;-69
2023/03/06 10:53:03;;;;;;;;;;;;;;;6.29;71.31;97926.25;4421821;32;19999;-66
2023/03/06 10:55:34;;;;;;;;;;;;;;;6.29;71.38;97923.66;4435997;32;20029;-67
2023/03/06 10:58:17;;;;;;;;;;;;;;;6.35;71.37;97923.13;4436141;32;20398;-66
2023/03/06 11:00:45;;;;;;;;;;;;;;;6.48;71.13;97912.50;4431639;32;20000;-68
2023/03/06 11:03:12;;;;;;;;;;;;;;;6.45;69.50;97912.78;4432931;32;20650;-68
2023/03/06 11:05:39;;;;;;;;;;;;;;;6.39;70.16;97908.91;4432590;32;19996;-67
2023/03/06 11:08:10;;;;;;;;;;;;;;;6.55;71.44;97902.38;4424773;32;20067;-66
2023/03/06 11:10:37;;;;;;;;;;;;;;;6.37;70.54;97895.22;4418182;32;20034;-67
2023/03/06 11:13:07;;;;;;;;;;;;;;;6.39;71.47;97888.09;4436238;32;19992;-68
2023/03/06 11:15:35;;;;;;;;;;;;;;;6.35;70.67;97888.50;4423856;32;20032;-68
2023/03/06 11:18:03;;;;;;;;;;;;;;;6.51;72.00;97875.81;4430999;32;20431;-68
2023/03/06 11:20:41;;;;;;;;;;;;;;;6.46;71.31;97877.97;4432385;32;20030;-66
2023/03/06 11:23:27;;;;;;;;;;;;;;;6.62;70.27;97864.47;4431298;32;19986;-68
2023/03/06 11:26:01;;;;;;;;;;;;;;;6.51;70.35;97864.56;4420023;32;20400;-68
2023/03/06 11:28:30;;;;;;;;;;;;;;;6.62;71.00;97856.66;4435491;32;20730;-68
2023/03/06 11:30:58;;;;;;;;;;;;;;;6.62;68.95;97850.66;4435511;32;20035;-67
2023/03/06 11:33:37;;;;;;;;;;;;;;;6.82;69.60;97841.88;4430763;32;20005;-67
2023/03/06 11:36:08;;;;;;;;;;;;;;;6.57;72.06;97832.81;4431913;32;20725;-68
2023/03/06 11:38:49;;;;;;;;;;;;;;;6.83;69.25;97811.44;4432744;32;20511;-68
2023/03/06 11:41:28;;;;;;;;;;;;;;;7.00;68.94;97808.16;4434347;32;19980;-67
2023/03/06 11:44:07;;;;;;;;;;;;;;;7.06;68.18;97799.00;4418395;32;20555;-68
2023/03/06 11:46:43;;;;;;;;;;;;;;;6.83;68.63;97793.22;4419534;32;19981;-68
2023/03/06 11:49:23;;;;;;;;;;;;;;;6.90;69.56;97797.78;4416737;32;19996;-67
2023/03/06 11:51:54;;;;;;;;;;;;;;;7.06;67.62;97793.78;4422832;32;19997;-67
2023/03/06 11:54:22;;;;;;;;;;;;;;;7.37;70.19;97796.19;4432330;32;19992;-66
2023/03/06 11:56:56;;;;;;;;;;;;;;;7.57;67.14;97789.13;4433341;32;19999;-67
2023/03/06 11:59:33;;;;;;;;;;;;;;;7.86;65.51;97786.44;4415593;32;19986;-67
2023/03/06 12:02:13;;;;;;;;;;;;;;;7.92;67.42;97783.25;4432768;32;20051;-66
2023/03/06 12:04:54;;;;;;;;;;;;;;;8.06;66.87;97778.50;4426814;32;20044;-67
2023/03/06 12:07:25;;;;;;;;;;;;;;;8.41;64.85;97772.50;4418191;32;21009;-68
2023/03/06 12:09:55;;;;;;;;;;;;;;;8.45;65.73;97775.69;4434221;32;19989;-68
2023/03/06 12:12:28;;;;;;;;;;;;;;;8.16;64.43;97774.03;4418674;32;19996;-67
2023/03/06 12:15:05;;;;;;;;;;;;;;;8.34;67.19;97774.91;4434200;32;20011;-68
2023/03/06 12:17:38;;;;;;;;;;;;;;;8.09;63.30;97765.19;4417097;32;20017;-68
2023/03/06 12:20:22;;;;;;;;;;;;;;;8.27;64.03;97760.81;4417747;32;19984;-68
2023/03/06 12:22:51;;;;;;;;;;;;;;;8.56;62.52;97759.81;4421296;32;20096;-68
2023/03/06 12:25:31;;;;;;;;;;;;;;;8.08;61.13;97738.25;4427774;32;20022;-68
2023/03/06 12:28:18;;;;;;;;;;;;;;;7.91;63.84;97754.69;4432759;32;20399;-68
2023/03/06 12:30:54;;;;;;;;;;;;;;;7.97;62.25;97749.72;4432051;32;19984;-68
2023/03/06 12:33:24;;;;;;;;;;;;;;;8.12;64.95;97746.63;4432904;32;19984;-68
2023/03/06 12:36:16;;;;;;;;;;;;;;;8.24;64.15;97749.84;4420173;32;20003;-68
2023/03/06 12:38:44;;;;;;;;;;;;;;;8.11;62.69;97750.19;4420796;32;20015;-68
2023/03/06 12:41:22;;;;;;;;;;;;;;;8.36;61.98;97743.44;4437544;32;20367;-68
2023/03/06 12:43:49;;;;;;;;;;;;;;;8.55;61.55;97747.72;4414130;32;20011;-68
2023/03/06 12:46:20;;;;;;;;;;;;;;;8.82;63.16;97746.00;4429060;32;19981;-68
2023/03/06 12:49:00;;;;;;;;;;;;;;;8.82;61.40;97741.56;4436320;32;20585;-68
2023/03/06 12:51:28;;;;;;;;;;;;;;;8.73;60.31;97736.47;4434095;32;20449;-68
2023/03/06 12:53:56;;;;;;;;;;;;;;;8.93;60.11;97726.66;4437102;32;20275;-68
2023/03/06 12:56:23;;;;;;;;;;;;;;;8.58;59.82;97729.13;4423247;32;20034;-68
2023/03/06 12:58:52;;;;;;;;;;;;;;;8.52;61.04;97737.56;4421324;32;20433;-68
2023/03/06 13:01:38;;;;;;;;;;;;;;;7.96;61.88;97737.66;4438102;32;20031;-68
2023/03/06 13:04:24;;;;;;;;;;;;;;;7.97;63.55;97728.84;4433877;32;20390;-68
2023/03/06 13:07:15;;;;;;;;;;;;;;;8.01;62.23;97732.00;4423274;32;19973;-67
2023/03/06 13:10:03;;;;;;;;;;;;;;;7.57;63.57;97731.78;4424013;32;20421;-67